sensor_id;sensor_type;location;lat;lon;timestamp;P1;durP1;ratioP1;P2;durP2;ratioP2
10232;SDS011;5161;48.174;11.756;2023-08-24T00:01:08;11.02;;;10.02;;
10232;SDS011;5161;48.174;11.756;2023-08-24T00:03:36;11.38;;;10.38;;
10232;SDS011;5161;48.174;11.756;2023-08-24T00:06:02;11.10;;;10.00;;
10232;SDS011;5161;48.174;11.756;2023-08-24T00:08:28;10.80;;;9.90;;
10232;SDS011;5161;48.174;11.756;2023-08-24T00:10:53;11.07;;;10.07;;
10232;SDS011;5161;48.174;11.756;2023-08-24T00:13:19;10.88;;;9.95;;
10232;SDS011;5161;48.174;11.756;2023-08-24T00:15:45;10.82;;;9.93;;
10232;SDS011;5161;48.174;11.756;2023-08-24T00:18:11;11.35;;;10.25;;
10232;SDS011;5161;48.174;11.756;2023-08-24T00:20:37;11.18;;;10.10;;
10232;SDS011;5161;48.174;11.756;2023-08-24T00:23:02;11.38;;;10.25;;
10232;SDS011;5161;48.174;11.756;2023-08-24T00:25:29;11.35;;;10.35;;
10232;SDS011;5161;48.174;11.756;2023-08-24T00:27:55;12.35;;;11.15;;
10232;SDS011;5161;48.174;11.756;2023-08-24T00:30:21;13.38;;;11.95;;
10232;SDS011;5161;48.174;11.756;2023-08-24T00:32:48;17.17;;;12.93;;
10232;SDS011;5161;48.174;11.756;2023-08-24T00:35:13;14.30;;;13.00;;
10232;SDS011;5161;48.174;11.756;2023-08-24T00:37:39;13.80;;;12.40;;
10232;SDS011;5161;48.174;11.756;2023-08-24T00:40:06;13.07;;;11.77;;
10232;SDS011;5161;48.174;11.756;2023-08-24T00:42:42;13.93;;;11.70;;
10232;SDS011;5161;48.174;11.756;2023-08-24T00:45:09;14.65;;;11.82;;
10232;SDS011;5161;48.174;11.756;2023-08-24T00:47:36;12.50;;;11.40;;
10232;SDS011;5161;48.174;11.756;2023-08-24T00:50:05;13.38;;;12.18;;
10232;SDS011;5161;48.174;11.756;2023-08-24T00:52:31;13.18;;;11.98;;
10232;SDS011;5161;48.174;11.756;2023-08-24T00:55:01;13.20;;;11.95;;
10232;SDS011;5161;48.174;11.756;2023-08-24T00:57:27;13.30;;;11.50;;
10232;SDS011;5161;48.174;11.756;2023-08-24T00:59:53;11.88;;;10.85;;
10232;SDS011;5161;48.174;11.756;2023-08-24T01:02:19;15.23;;;11.38;;
10232;SDS011;5161;48.174;11.756;2023-08-24T01:04:46;12.27;;;11.25;;
10232;SDS011;5161;48.174;11.756;2023-08-24T01:07:12;11.63;;;10.68;;
10232;SDS011;5161;48.174;11.756;2023-08-24T01:09:39;12.52;;;11.38;;
10232;SDS011;5161;48.174;11.756;2023-08-24T01:14:50;12.00;;;10.98;;
10232;SDS011;5161;48.174;11.756;2023-08-24T01:17:21;12.27;;;11.18;;
10232;SDS011;5161;48.174;11.756;2023-08-24T01:19:48;12.15;;;11.15;;
10232;SDS011;5161;48.174;11.756;2023-08-24T01:22:27;12.82;;;11.50;;
10232;SDS011;5161;48.174;11.756;2023-08-24T01:25:24;12.57;;;11.57;;
10232;SDS011;5161;48.174;11.756;2023-08-24T01:28:05;14.75;;;11.70;;
10232;SDS011;5161;48.174;11.756;2023-08-24T01:30:33;13.38;;;11.98;;
10232;SDS011;5161;48.174;11.756;2023-08-24T01:33:02;13.38;;;12.13;;
10232;SDS011;5161;48.174;11.756;2023-08-24T01:35:29;14.65;;;12.60;;
10232;SDS011;5161;48.174;11.756;2023-08-24T01:37:56;13.60;;;12.40;;
10232;SDS011;5161;48.174;11.756;2023-08-24T01:45:31;12.88;;;11.70;;
10232;SDS011;5161;48.174;11.756;2023-08-24T01:47:58;14.15;;;12.93;;
10232;SDS011;5161;48.174;11.756;2023-08-24T01:50:26;14.25;;;12.88;;
10232;SDS011;5161;48.174;11.756;2023-08-24T01:52:52;14.00;;;12.35;;
10232;SDS011;5161;48.174;11.756;2023-08-24T01:55:18;14.07;;;12.65;;
10232;SDS011;5161;48.174;11.756;2023-08-24T01:57:44;15.57;;;13.30;;
10232;SDS011;5161;48.174;11.756;2023-08-24T02:00:10;14.00;;;12.90;;
10232;SDS011;5161;48.174;11.756;2023-08-24T02:02:36;15.13;;;13.70;;
10232;SDS011;5161;48.174;11.756;2023-08-24T02:05:02;14.75;;;13.45;;
10232;SDS011;5161;48.174;11.756;2023-08-24T02:07:28;14.18;;;12.98;;
10232;SDS011;5161;48.174;11.756;2023-08-24T02:09:54;14.52;;;13.07;;
10232;SDS011;5161;48.174;11.756;2023-08-24T02:12:19;14.20;;;12.98;;
10232;SDS011;5161;48.174;11.756;2023-08-24T02:14:45;13.88;;;12.77;;
10232;SDS011;5161;48.174;11.756;2023-08-24T02:17:10;14.25;;;12.95;;
10232;SDS011;5161;48.174;11.756;2023-08-24T02:19:36;14.43;;;13.13;;
10232;SDS011;5161;48.174;11.756;2023-08-24T02:22:02;14.65;;;13.35;;
10232;SDS011;5161;48.174;11.756;2023-08-24T02:24:27;15.68;;;14.18;;
10232;SDS011;5161;48.174;11.756;2023-08-24T02:26:53;15.10;;;13.80;;
10232;SDS011;5161;48.174;11.756;2023-08-24T02:29:18;15.50;;;14.20;;
10232;SDS011;5161;48.174;11.756;2023-08-24T02:31:44;15.90;;;14.50;;
10232;SDS011;5161;48.174;11.756;2023-08-24T02:34:10;15.55;;;14.23;;
10232;SDS011;5161;48.174;11.756;2023-08-24T02:36:35;15.70;;;14.10;;
10232;SDS011;5161;48.174;11.756;2023-08-24T02:39:01;15.07;;;13.68;;
10232;SDS011;5161;48.174;11.756;2023-08-24T02:41:26;14.35;;;13.15;;
10232;SDS011;5161;48.174;11.756;2023-08-24T02:43:52;14.80;;;13.60;;
10232;SDS011;5161;48.174;11.756;2023-08-24T02:46:20;15.10;;;13.70;;
10232;SDS011;5161;48.174;11.756;2023-08-24T02:48:46;14.98;;;13.65;;
10232;SDS011;5161;48.174;11.756;2023-08-24T02:51:12;15.00;;;13.80;;
10232;SDS011;5161;48.174;11.756;2023-08-24T02:53:38;15.50;;;14.20;;
10232;SDS011;5161;48.174;11.756;2023-08-24T02:56:04;14.40;;;13.20;;
10232;SDS011;5161;48.174;11.756;2023-08-24T02:58:30;14.32;;;13.05;;
10232;SDS011;5161;48.174;11.756;2023-08-24T03:00:55;15.30;;;13.77;;
10232;SDS011;5161;48.174;11.756;2023-08-24T03:03:21;15.10;;;13.70;;
10232;SDS011;5161;48.174;11.756;2023-08-24T03:05:55;15.07;;;13.77;;
10232;SDS011;5161;48.174;11.756;2023-08-24T03:08:21;15.95;;;14.35;;
10232;SDS011;5161;48.174;11.756;2023-08-24T03:10:47;15.30;;;13.88;;
10232;SDS011;5161;48.174;11.756;2023-08-24T03:13:13;14.90;;;13.60;;
10232;SDS011;5161;48.174;11.756;2023-08-24T03:15:39;16.17;;;14.50;;
10232;SDS011;5161;48.174;11.756;2023-08-24T03:18:04;15.13;;;13.68;;
10232;SDS011;5161;48.174;11.756;2023-08-24T03:20:30;15.63;;;14.13;;
10232;SDS011;5161;48.174;11.756;2023-08-24T03:22:55;14.80;;;13.50;;
10232;SDS011;5161;48.174;11.756;2023-08-24T03:25:22;15.32;;;13.98;;
10232;SDS011;5161;48.174;11.756;2023-08-24T03:27:48;14.68;;;13.25;;
10232;SDS011;5161;48.174;11.756;2023-08-24T03:30:13;15.48;;;13.90;;
10232;SDS011;5161;48.174;11.756;2023-08-24T03:32:39;14.25;;;13.02;;
10232;SDS011;5161;48.174;11.756;2023-08-24T03:35:05;15.27;;;13.75;;
10232;SDS011;5161;48.174;11.756;2023-08-24T03:37:31;15.82;;;13.55;;
10232;SDS011;5161;48.174;11.756;2023-08-24T03:39:57;15.82;;;14.00;;
10232;SDS011;5161;48.174;11.756;2023-08-24T03:42:23;14.98;;;13.57;;
10232;SDS011;5161;48.174;11.756;2023-08-24T03:44:48;17.40;;;13.30;;
10232;SDS011;5161;48.174;11.756;2023-08-24T03:47:14;16.65;;;13.10;;
10232;SDS011;5161;48.174;11.756;2023-08-24T03:49:42;13.80;;;12.63;;
10232;SDS011;5161;48.174;11.756;2023-08-24T03:52:08;14.38;;;12.90;;
10232;SDS011;5161;48.174;11.756;2023-08-24T03:54:34;15.07;;;13.05;;
10232;SDS011;5161;48.174;11.756;2023-08-24T03:56:59;15.95;;;13.20;;
10232;SDS011;5161;48.174;11.756;2023-08-24T03:59:25;15.00;;;13.38;;
10232;SDS011;5161;48.174;11.756;2023-08-24T04:01:50;14.43;;;12.80;;
10232;SDS011;5161;48.174;11.756;2023-08-24T04:04:16;17.20;;;13.20;;
10232;SDS011;5161;48.174;11.756;2023-08-24T04:06:41;13.63;;;12.23;;
10232;SDS011;5161;48.174;11.756;2023-08-24T04:09:07;13.95;;;12.45;;
10232;SDS011;5161;48.174;11.756;2023-08-24T04:11:34;14.43;;;13.00;;
10232;SDS011;5161;48.174;11.756;2023-08-24T04:13:59;14.07;;;12.70;;
10232;SDS011;5161;48.174;11.756;2023-08-24T04:16:25;13.32;;;12.00;;
10232;SDS011;5161;48.174;11.756;2023-08-24T04:18:50;14.07;;;12.60;;
10232;SDS011;5161;48.174;11.756;2023-08-24T04:21:16;13.90;;;12.60;;
10232;SDS011;5161;48.174;11.756;2023-08-24T04:23:41;13.85;;;12.55;;
10232;SDS011;5161;48.174;11.756;2023-08-24T04:26:13;14.60;;;12.82;;
10232;SDS011;5161;48.174;11.756;2023-08-24T04:28:39;13.52;;;12.07;;
10232;SDS011;5161;48.174;11.756;2023-08-24T04:31:04;13.55;;;12.15;;
10232;SDS011;5161;48.174;11.756;2023-08-24T04:33:30;14.07;;;12.68;;
10232;SDS011;5161;48.174;11.756;2023-08-24T04:35:56;13.88;;;12.52;;
10232;SDS011;5161;48.174;11.756;2023-08-24T04:38:23;13.68;;;12.38;;
10232;SDS011;5161;48.174;11.756;2023-08-24T04:40:52;14.15;;;12.43;;
10232;SDS011;5161;48.174;11.756;2023-08-24T04:43:20;15.43;;;12.15;;
10232;SDS011;5161;48.174;11.756;2023-08-24T04:45:47;15.32;;;12.73;;
10232;SDS011;5161;48.174;11.756;2023-08-24T04:48:22;19.00;;;12.60;;
10232;SDS011;5161;48.174;11.756;2023-08-24T04:50:49;13.17;;;11.63;;
10232;SDS011;5161;48.174;11.756;2023-08-24T04:53:19;12.70;;;11.35;;
10232;SDS011;5161;48.174;11.756;2023-08-24T04:55:45;13.45;;;11.70;;
10232;SDS011;5161;48.174;11.756;2023-08-24T04:58:12;12.82;;;11.52;;
10232;SDS011;5161;48.174;11.756;2023-08-24T05:00:38;12.60;;;11.38;;
10232;SDS011;5161;48.174;11.756;2023-08-24T05:03:04;13.30;;;11.57;;
10232;SDS011;5161;48.174;11.756;2023-08-24T05:05:31;13.10;;;11.00;;
10232;SDS011;5161;48.174;11.756;2023-08-24T05:07:58;12.57;;;11.35;;
10232;SDS011;5161;48.174;11.756;2023-08-24T05:10:24;12.45;;;11.27;;
10232;SDS011;5161;48.174;11.756;2023-08-24T05:12:50;13.02;;;11.73;;
10232;SDS011;5161;48.174;11.756;2023-08-24T05:15:16;12.05;;;10.85;;
10232;SDS011;5161;48.174;11.756;2023-08-24T05:17:42;14.77;;;11.50;;
10232;SDS011;5161;48.174;11.756;2023-08-24T05:20:07;15.70;;;10.77;;
10232;SDS011;5161;48.174;11.756;2023-08-24T05:22:35;17.17;;;11.52;;
10232;SDS011;5161;48.174;11.756;2023-08-24T05:25:01;13.43;;;11.70;;
10232;SDS011;5161;48.174;11.756;2023-08-24T05:27:27;16.47;;;12.10;;
10232;SDS011;5161;48.174;11.756;2023-08-24T05:29:53;21.52;;;12.55;;
10232;SDS011;5161;48.174;11.756;2023-08-24T05:32:18;27.45;;;13.07;;
10232;SDS011;5161;48.174;11.756;2023-08-24T05:34:44;29.57;;;13.00;;
10232;SDS011;5161;48.174;11.756;2023-08-24T05:37:11;30.45;;;13.90;;
10232;SDS011;5161;48.174;11.756;2023-08-24T05:39:36;26.30;;;14.03;;
10232;SDS011;5161;48.174;11.756;2023-08-24T05:42:03;16.25;;;13.48;;
10232;SDS011;5161;48.174;11.756;2023-08-24T05:44:29;25.50;;;14.65;;
10232;SDS011;5161;48.174;11.756;2023-08-24T05:46:54;28.98;;;14.25;;
10232;SDS011;5161;48.174;11.756;2023-08-24T05:49:20;15.73;;;14.13;;
10232;SDS011;5161;48.174;11.756;2023-08-24T05:51:46;15.20;;;13.70;;
10232;SDS011;5161;48.174;11.756;2023-08-24T05:54:11;15.57;;;13.98;;
10232;SDS011;5161;48.174;11.756;2023-08-24T05:56:38;16.55;;;14.35;;
10232;SDS011;5161;48.174;11.756;2023-08-24T05:59:04;15.35;;;13.82;;
10232;SDS011;5161;48.174;11.756;2023-08-24T06:01:29;15.68;;;14.13;;
10232;SDS011;5161;48.174;11.756;2023-08-24T06:03:55;16.00;;;14.30;;
10232;SDS011;5161;48.174;11.756;2023-08-24T06:06:20;17.52;;;14.40;;
10232;SDS011;5161;48.174;11.756;2023-08-24T06:08:46;16.33;;;14.68;;
10232;SDS011;5161;48.174;11.756;2023-08-24T06:11:11;16.23;;;14.75;;
10232;SDS011;5161;48.174;11.756;2023-08-24T06:13:37;18.30;;;14.43;;
10232;SDS011;5161;48.174;11.756;2023-08-24T06:16:02;15.43;;;13.98;;
10232;SDS011;5161;48.174;11.756;2023-08-24T06:18:28;16.38;;;14.77;;
10232;SDS011;5161;48.174;11.756;2023-08-24T06:20:54;15.60;;;14.20;;
10232;SDS011;5161;48.174;11.756;2023-08-24T06:23:19;17.65;;;14.70;;
10232;SDS011;5161;48.174;11.756;2023-08-24T06:25:46;15.82;;;14.13;;
10232;SDS011;5161;48.174;11.756;2023-08-24T06:28:12;15.57;;;14.02;;
10232;SDS011;5161;48.174;11.756;2023-08-24T06:30:38;15.15;;;13.75;;
10232;SDS011;5161;48.174;11.756;2023-08-24T06:33:05;15.35;;;13.95;;
10232;SDS011;5161;48.174;11.756;2023-08-24T06:35:34;15.23;;;13.73;;
10232;SDS011;5161;48.174;11.756;2023-08-24T06:38:00;14.30;;;13.07;;
10232;SDS011;5161;48.174;11.756;2023-08-24T06:40:26;14.63;;;13.15;;
10232;SDS011;5161;48.174;11.756;2023-08-24T06:42:52;14.40;;;13.00;;
10232;SDS011;5161;48.174;11.756;2023-08-24T06:45:18;14.07;;;12.68;;
10232;SDS011;5161;48.174;11.756;2023-08-24T06:47:44;14.95;;;12.70;;
10232;SDS011;5161;48.174;11.756;2023-08-24T06:50:10;14.10;;;12.52;;
10232;SDS011;5161;48.174;11.756;2023-08-24T06:52:36;14.35;;;12.80;;
10232;SDS011;5161;48.174;11.756;2023-08-24T06:55:02;17.40;;;12.23;;
10232;SDS011;5161;48.174;11.756;2023-08-24T06:57:28;13.60;;;12.40;;
10232;SDS011;5161;48.174;11.756;2023-08-24T06:59:54;12.90;;;11.68;;
10232;SDS011;5161;48.174;11.756;2023-08-24T07:02:19;12.65;;;11.43;;
10232;SDS011;5161;48.174;11.756;2023-08-24T07:04:45;12.40;;;11.38;;
10232;SDS011;5161;48.174;11.756;2023-08-24T07:07:10;12.15;;;10.82;;
10232;SDS011;5161;48.174;11.756;2023-08-24T07:09:36;17.17;;;11.07;;
10232;SDS011;5161;48.174;11.756;2023-08-24T07:12:05;13.20;;;11.27;;
10232;SDS011;5161;48.174;11.756;2023-08-24T07:14:34;12.88;;;11.77;;
10232;SDS011;5161;48.174;11.756;2023-08-24T07:17:03;12.40;;;11.30;;
10232;SDS011;5161;48.174;11.756;2023-08-24T07:19:29;12.30;;;11.10;;
10232;SDS011;5161;48.174;11.756;2023-08-24T07:21:54;12.43;;;11.00;;
10232;SDS011;5161;48.174;11.756;2023-08-24T07:24:25;12.23;;;11.05;;
10232;SDS011;5161;48.174;11.756;2023-08-24T07:26:54;13.68;;;11.50;;
10232;SDS011;5161;48.174;11.756;2023-08-24T07:29:20;12.63;;;11.43;;
10232;SDS011;5161;48.174;11.756;2023-08-24T07:31:46;12.20;;;11.18;;
10232;SDS011;5161;48.174;11.756;2023-08-24T07:34:12;12.75;;;11.45;;
10232;SDS011;5161;48.174;11.756;2023-08-24T07:36:39;12.20;;;11.05;;
10232;SDS011;5161;48.174;11.756;2023-08-24T07:39:11;15.07;;;11.80;;
10232;SDS011;5161;48.174;11.756;2023-08-24T07:41:37;12.63;;;11.40;;
10232;SDS011;5161;48.174;11.756;2023-08-24T07:44:03;12.65;;;11.32;;
10232;SDS011;5161;48.174;11.756;2023-08-24T07:46:29;12.43;;;11.25;;
10232;SDS011;5161;48.174;11.756;2023-08-24T07:48:55;12.45;;;10.40;;
10232;SDS011;5161;48.174;11.756;2023-08-24T07:51:21;12.15;;;10.98;;
10232;SDS011;5161;48.174;11.756;2023-08-24T07:53:46;12.07;;;11.02;;
10232;SDS011;5161;48.174;11.756;2023-08-24T07:56:14;12.30;;;11.20;;
10232;SDS011;5161;48.174;11.756;2023-08-24T07:58:39;12.55;;;11.50;;
10232;SDS011;5161;48.174;11.756;2023-08-24T08:01:05;13.07;;;11.75;;
10232;SDS011;5161;48.174;11.756;2023-08-24T08:03:30;13.60;;;12.40;;
10232;SDS011;5161;48.174;11.756;2023-08-24T08:05:56;12.77;;;11.57;;
10232;SDS011;5161;48.174;11.756;2023-08-24T08:08:23;13.07;;;11.80;;
10232;SDS011;5161;48.174;11.756;2023-08-24T08:10:55;13.80;;;12.52;;
10232;SDS011;5161;48.174;11.756;2023-08-24T08:13:26;12.88;;;11.60;;
10232;SDS011;5161;48.174;11.756;2023-08-24T08:15:52;13.45;;;12.25;;
10232;SDS011;5161;48.174;11.756;2023-08-24T08:18:18;14.80;;;12.18;;
10232;SDS011;5161;48.174;11.756;2023-08-24T08:20:44;13.57;;;12.18;;
10232;SDS011;5161;48.174;11.756;2023-08-24T08:23:09;13.75;;;12.07;;
10232;SDS011;5161;48.174;11.756;2023-08-24T08:25:35;15.20;;;12.60;;
10232;SDS011;5161;48.174;11.756;2023-08-24T08:28:00;13.00;;;12.00;;
10232;SDS011;5161;48.174;11.756;2023-08-24T08:30:26;13.65;;;12.43;;
10232;SDS011;5161;48.174;11.756;2023-08-24T08:32:52;13.52;;;12.38;;
10232;SDS011;5161;48.174;11.756;2023-08-24T08:35:19;14.05;;;12.85;;
10232;SDS011;5161;48.174;11.756;2023-08-24T08:37:45;14.57;;;13.00;;
10232;SDS011;5161;48.174;11.756;2023-08-24T08:40:11;14.00;;;12.65;;
10232;SDS011;5161;48.174;11.756;2023-08-24T08:42:37;14.57;;;12.98;;
10232;SDS011;5161;48.174;11.756;2023-08-24T08:45:04;14.63;;;13.13;;
10232;SDS011;5161;48.174;11.756;2023-08-24T08:47:33;13.82;;;12.73;;
10232;SDS011;5161;48.174;11.756;2023-08-24T08:49:59;13.73;;;12.43;;
10232;SDS011;5161;48.174;11.756;2023-08-24T08:52:27;15.45;;;12.40;;
10232;SDS011;5161;48.174;11.756;2023-08-24T08:54:53;13.82;;;12.32;;
10232;SDS011;5161;48.174;11.756;2023-08-24T08:57:19;13.25;;;11.80;;
10232;SDS011;5161;48.174;11.756;2023-08-24T08:59:47;15.25;;;12.82;;
10232;SDS011;5161;48.174;11.756;2023-08-24T09:02:16;13.90;;;11.93;;
10232;SDS011;5161;48.174;11.756;2023-08-24T09:04:44;16.33;;;12.23;;
10232;SDS011;5161;48.174;11.756;2023-08-24T09:07:11;12.90;;;11.60;;
10232;SDS011;5161;48.174;11.756;2023-08-24T09:09:40;12.70;;;11.60;;
10232;SDS011;5161;48.174;11.756;2023-08-24T09:12:06;12.25;;;11.15;;
10232;SDS011;5161;48.174;11.756;2023-08-24T09:14:35;13.30;;;11.27;;
10232;SDS011;5161;48.174;11.756;2023-08-24T09:17:00;13.55;;;12.23;;
10232;SDS011;5161;48.174;11.756;2023-08-24T09:19:32;13.95;;;11.15;;
10232;SDS011;5161;48.174;11.756;2023-08-24T09:22:00;13.60;;;11.45;;
10232;SDS011;5161;48.174;11.756;2023-08-24T09:24:33;12.02;;;10.82;;
10232;SDS011;5161;48.174;11.756;2023-08-24T09:27:00;13.73;;;11.10;;
10232;SDS011;5161;48.174;11.756;2023-08-24T09:29:43;12.25;;;11.00;;
10232;SDS011;5161;48.174;11.756;2023-08-24T09:32:12;13.30;;;11.43;;
10232;SDS011;5161;48.174;11.756;2023-08-24T09:34:38;12.80;;;10.80;;
10232;SDS011;5161;48.174;11.756;2023-08-24T09:37:03;12.77;;;11.55;;
10232;SDS011;5161;48.174;11.756;2023-08-24T09:39:37;13.68;;;11.48;;
10232;SDS011;5161;48.174;11.756;2023-08-24T09:42:03;12.07;;;10.95;;
10232;SDS011;5161;48.174;11.756;2023-08-24T09:44:29;13.75;;;10.88;;
10232;SDS011;5161;48.174;11.756;2023-08-24T09:46:55;12.13;;;10.85;;
10232;SDS011;5161;48.174;11.756;2023-08-24T09:49:21;11.88;;;10.70;;
10232;SDS011;5161;48.174;11.756;2023-08-24T09:51:46;13.20;;;11.38;;
10232;SDS011;5161;48.174;11.756;2023-08-24T09:54:13;13.43;;;11.20;;
10232;SDS011;5161;48.174;11.756;2023-08-24T09:56:41;12.57;;;11.40;;
10232;SDS011;5161;48.174;11.756;2023-08-24T10:01:39;12.98;;;11.60;;
10232;SDS011;5161;48.174;11.756;2023-08-24T10:04:07;12.45;;;11.30;;
10232;SDS011;5161;48.174;11.756;2023-08-24T10:06:34;14.05;;;11.32;;
10232;SDS011;5161;48.174;11.756;2023-08-24T10:09:02;12.13;;;11.02;;
10232;SDS011;5161;48.174;11.756;2023-08-24T10:11:34;12.18;;;11.07;;
10232;SDS011;5161;48.174;11.756;2023-08-24T10:14:40;12.93;;;11.68;;
10232;SDS011;5161;48.174;11.756;2023-08-24T10:16:59;13.93;;;11.18;;
10232;SDS011;5161;48.174;11.756;2023-08-24T10:19:26;19.55;;;11.52;;
10232;SDS011;5161;48.174;11.756;2023-08-24T10:21:54;12.85;;;11.35;;
10232;SDS011;5161;48.174;11.756;2023-08-24T10:24:22;11.90;;;10.73;;
10232;SDS011;5161;48.174;11.756;2023-08-24T10:26:48;12.57;;;11.35;;
10232;SDS011;5161;48.174;11.756;2023-08-24T10:29:18;13.20;;;11.65;;
10232;SDS011;5161;48.174;11.756;2023-08-24T10:31:45;13.15;;;11.30;;
10232;SDS011;5161;48.174;11.756;2023-08-24T10:34:11;12.82;;;11.60;;
10232;SDS011;5161;48.174;11.756;2023-08-24T10:36:40;12.18;;;10.95;;
10232;SDS011;5161;48.174;11.756;2023-08-24T10:39:12;12.45;;;11.20;;
10232;SDS011;5161;48.174;11.756;2023-08-24T10:41:49;12.70;;;11.45;;
10232;SDS011;5161;48.174;11.756;2023-08-24T10:44:19;12.48;;;11.18;;
10232;SDS011;5161;48.174;11.756;2023-08-24T10:49:32;15.02;;;11.30;;
10232;SDS011;5161;48.174;11.756;2023-08-24T10:51:58;12.13;;;11.10;;
10232;SDS011;5161;48.174;11.756;2023-08-24T10:54:45;12.15;;;11.15;;
10232;SDS011;5161;48.174;11.756;2023-08-24T10:57:26;15.55;;;11.60;;
10232;SDS011;5161;48.174;11.756;2023-08-24T11:00:00;17.00;;;12.02;;
10232;SDS011;5161;48.174;11.756;2023-08-24T11:02:38;12.90;;;11.60;;
10232;SDS011;5161;48.174;11.756;2023-08-24T11:07:55;11.65;;;10.68;;
10232;SDS011;5161;48.174;11.756;2023-08-24T11:10:25;13.23;;;11.18;;
10232;SDS011;5161;48.174;11.756;2023-08-24T11:13:05;12.05;;;10.65;;
10232;SDS011;5161;48.174;11.756;2023-08-24T11:15:50;12.48;;;10.73;;
10232;SDS011;5161;48.174;11.756;2023-08-24T11:18:27;12.35;;;11.07;;
10232;SDS011;5161;48.174;11.756;2023-08-24T11:20:54;12.52;;;11.20;;
10232;SDS011;5161;48.174;11.756;2023-08-24T11:23:20;11.52;;;10.32;;
10232;SDS011;5161;48.174;11.756;2023-08-24T11:25:53;11.38;;;9.65;;
10232;SDS011;5161;48.174;11.756;2023-08-24T11:28:25;11.70;;;10.55;;
10232;SDS011;5161;48.174;11.756;2023-08-24T11:30:54;11.38;;;10.23;;
10232;SDS011;5161;48.174;11.756;2023-08-24T11:33:30;12.38;;;10.10;;
10232;SDS011;5161;48.174;11.756;2023-08-24T11:36:00;11.50;;;10.43;;
10232;SDS011;5161;48.174;11.756;2023-08-24T11:38:40;13.95;;;9.88;;
10232;SDS011;5161;48.174;11.756;2023-08-24T11:41:25;11.38;;;9.00;;
10232;SDS011;5161;48.174;11.756;2023-08-24T11:43:58;11.63;;;9.02;;
10232;SDS011;5161;48.174;11.756;2023-08-24T11:46:25;10.30;;;9.23;;
10232;SDS011;5161;48.174;11.756;2023-08-24T11:48:56;9.45;;;8.43;;
10232;SDS011;5161;48.174;11.756;2023-08-24T11:51:22;10.55;;;9.48;;
10232;SDS011;5161;48.174;11.756;2023-08-24T11:53:48;11.90;;;10.63;;
10232;SDS011;5161;48.174;11.756;2023-08-24T11:56:14;11.18;;;10.15;;
10232;SDS011;5161;48.174;11.756;2023-08-24T11:58:42;14.25;;;9.82;;
10232;SDS011;5161;48.174;11.756;2023-08-24T12:01:10;10.80;;;9.70;;
10232;SDS011;5161;48.174;11.756;2023-08-24T12:03:39;11.02;;;10.02;;
10232;SDS011;5161;48.174;11.756;2023-08-24T12:06:09;11.60;;;9.35;;
10232;SDS011;5161;48.174;11.756;2023-08-24T12:08:46;10.38;;;9.48;;
10232;SDS011;5161;48.174;11.756;2023-08-24T12:11:20;11.90;;;9.57;;
10232;SDS011;5161;48.174;11.756;2023-08-24T12:13:50;10.32;;;9.40;;
10232;SDS011;5161;48.174;11.756;2023-08-24T12:16:17;10.60;;;9.57;;
10232;SDS011;5161;48.174;11.756;2023-08-24T12:18:49;10.32;;;9.32;;
10232;SDS011;5161;48.174;11.756;2023-08-24T12:21:16;15.90;;;9.82;;
10232;SDS011;5161;48.174;11.756;2023-08-24T12:23:42;10.30;;;9.40;;
10232;SDS011;5161;48.174;11.756;2023-08-24T12:26:07;10.85;;;9.82;;
10232;SDS011;5161;48.174;11.756;2023-08-24T12:28:33;10.98;;;9.88;;
10232;SDS011;5161;48.174;11.756;2023-08-24T12:31:01;11.82;;;9.32;;
10232;SDS011;5161;48.174;11.756;2023-08-24T12:33:28;13.55;;;9.90;;
10232;SDS011;5161;48.174;11.756;2023-08-24T12:35:56;11.07;;;8.93;;
10232;SDS011;5161;48.174;11.756;2023-08-24T12:38:23;9.70;;;8.73;;
10232;SDS011;5161;48.174;11.756;2023-08-24T12:40:50;14.50;;;8.95;;
10232;SDS011;5161;48.174;11.756;2023-08-24T12:43:19;13.70;;;9.20;;
10232;SDS011;5161;48.174;11.756;2023-08-24T12:45:44;11.75;;;8.90;;
10232;SDS011;5161;48.174;11.756;2023-08-24T12:48:10;11.30;;;9.02;;
10232;SDS011;5161;48.174;11.756;2023-08-24T12:50:37;13.93;;;9.15;;
10232;SDS011;5161;48.174;11.756;2023-08-24T12:53:03;11.48;;;8.20;;
10232;SDS011;5161;48.174;11.756;2023-08-24T12:55:31;12.88;;;8.38;;
10232;SDS011;5161;48.174;11.756;2023-08-24T12:57:57;14.00;;;8.02;;
10232;SDS011;5161;48.174;11.756;2023-08-24T13:00:23;12.52;;;8.50;;
10232;SDS011;5161;48.174;11.756;2023-08-24T13:02:49;11.05;;;7.82;;
10232;SDS011;5161;48.174;11.756;2023-08-24T13:05:15;16.08;;;8.30;;
10232;SDS011;5161;48.174;11.756;2023-08-24T13:07:41;12.80;;;7.80;;
10232;SDS011;5161;48.174;11.756;2023-08-24T13:10:07;13.80;;;7.90;;
10232;SDS011;5161;48.174;11.756;2023-08-24T13:12:34;17.20;;;7.30;;
10232;SDS011;5161;48.174;11.756;2023-08-24T13:15:00;11.50;;;6.95;;
10232;SDS011;5161;48.174;11.756;2023-08-24T13:17:27;19.67;;;7.53;;
10232;SDS011;5161;48.174;11.756;2023-08-24T13:19:52;16.45;;;7.43;;
10232;SDS011;5161;48.174;11.756;2023-08-24T13:22:18;13.18;;;7.00;;
10232;SDS011;5161;48.174;11.756;2023-08-24T13:24:44;15.85;;;6.47;;
10232;SDS011;5161;48.174;11.756;2023-08-24T13:27:10;11.20;;;6.32;;
10232;SDS011;5161;48.174;11.756;2023-08-24T13:29:36;16.08;;;7.18;;
10232;SDS011;5161;48.174;11.756;2023-08-24T13:32:02;13.18;;;7.35;;
10232;SDS011;5161;48.174;11.756;2023-08-24T13:34:28;18.83;;;7.78;;
10232;SDS011;5161;48.174;11.756;2023-08-24T13:36:53;12.15;;;6.93;;
10232;SDS011;5161;48.174;11.756;2023-08-24T13:39:19;14.70;;;7.85;;
10232;SDS011;5161;48.174;11.756;2023-08-24T13:41:45;14.10;;;7.80;;
10232;SDS011;5161;48.174;11.756;2023-08-24T13:44:10;18.83;;;7.78;;
10232;SDS011;5161;48.174;11.756;2023-08-24T13:46:36;18.65;;;7.70;;
10232;SDS011;5161;48.174;11.756;2023-08-24T13:49:01;15.27;;;7.78;;
10232;SDS011;5161;48.174;11.756;2023-08-24T13:51:27;15.20;;;7.40;;
10232;SDS011;5161;48.174;11.756;2023-08-24T13:53:53;16.27;;;7.47;;
10232;SDS011;5161;48.174;11.756;2023-08-24T13:56:19;11.80;;;7.40;;
10232;SDS011;5161;48.174;11.756;2023-08-24T13:58:45;15.05;;;7.95;;
10232;SDS011;5161;48.174;11.756;2023-08-24T14:01:11;14.23;;;8.43;;
10232;SDS011;5161;48.174;11.756;2023-08-24T14:03:38;16.40;;;8.48;;
10232;SDS011;5161;48.174;11.756;2023-08-24T14:06:05;15.18;;;8.00;;
10232;SDS011;5161;48.174;11.756;2023-08-24T14:08:30;12.10;;;8.15;;
10232;SDS011;5161;48.174;11.756;2023-08-24T14:10:56;13.52;;;8.25;;
10232;SDS011;5161;48.174;11.756;2023-08-24T14:13:22;17.20;;;9.00;;
10232;SDS011;5161;48.174;11.756;2023-08-24T14:15:49;11.27;;;7.90;;
10232;SDS011;5161;48.174;11.756;2023-08-24T14:18:15;13.35;;;8.63;;
10232;SDS011;5161;48.174;11.756;2023-08-24T14:20:42;15.48;;;7.95;;
10232;SDS011;5161;48.174;11.756;2023-08-24T14:23:08;13.02;;;8.43;;
10232;SDS011;5161;48.174;11.756;2023-08-24T14:25:34;16.38;;;8.32;;
10232;SDS011;5161;48.174;11.756;2023-08-24T14:27:59;14.55;;;7.88;;
10232;SDS011;5161;48.174;11.756;2023-08-24T14:30:25;19.73;;;8.32;;
10232;SDS011;5161;48.174;11.756;2023-08-24T14:32:51;13.95;;;8.75;;
10232;SDS011;5161;48.174;11.756;2023-08-24T14:35:17;14.50;;;8.60;;
10232;SDS011;5161;48.174;11.756;2023-08-24T14:37:42;21.23;;;8.10;;
10232;SDS011;5161;48.174;11.756;2023-08-24T14:40:08;15.63;;;7.70;;